sensor_id;sensor_type;location;lat;lon;timestamp;P1;durP1;ratioP1;P2;durP2;ratioP2
1593;SDS011;790;47.000;16.084;2023-02-27T00:00:26;1.67;;;1.57;;
1593;SDS011;790;47.000;16.084;2023-02-27T00:02:53;2.03;;;1.93;;
1593;SDS011;790;47.000;16.084;2023-02-27T00:05:20;2.17;;;1.90;;
1593;SDS011;790;47.000;16.084;2023-02-27T00:07:48;2.20;;;2.00;;
1593;SDS011;790;47.000;16.084;2023-02-27T00:10:15;2.23;;;2.00;;
1593;SDS011;790;47.000;16.084;2023-02-27T00:12:43;3.50;;;3.20;;
1593;SDS011;790;47.000;16.084;2023-02-27T00:15:13;2.30;;;2.20;;
1593;SDS011;790;47.000;16.084;2023-02-27T00:17:41;2.50;;;2.30;;
1593;SDS011;790;47.000;16.084;2023-02-27T00:20:10;2.17;;;1.97;;
1593;SDS011;790;47.000;16.084;2023-02-27T00:22:39;2.20;;;2.10;;
1593;SDS011;790;47.000;16.084;2023-02-27T00:25:07;2.00;;;1.90;;
1593;SDS011;790;47.000;16.084;2023-02-27T00:27:35;2.33;;;2.00;;
1593;SDS011;790;47.000;16.084;2023-02-27T00:30:03;2.03;;;1.93;;
1593;SDS011;790;47.000;16.084;2023-02-27T00:32:34;1.77;;;1.70;;
1593;SDS011;790;47.000;16.084;2023-02-27T00:35:02;2.40;;;2.20;;
1593;SDS011;790;47.000;16.084;2023-02-27T00:37:29;2.50;;;2.20;;
1593;SDS011;790;47.000;16.084;2023-02-27T00:39:57;2.00;;;1.90;;
1593;SDS011;790;47.000;16.084;2023-02-27T00:42:24;2.30;;;2.10;;
1593;SDS011;790;47.000;16.084;2023-02-27T00:44:52;2.37;;;2.27;;
1593;SDS011;790;47.000;16.084;2023-02-27T00:47:19;2.73;;;2.47;;
1593;SDS011;790;47.000;16.084;2023-02-27T00:49:48;2.57;;;2.00;;
1593;SDS011;790;47.000;16.084;2023-02-27T00:52:15;2.57;;;2.37;;
1593;SDS011;790;47.000;16.084;2023-02-27T00:54:43;2.60;;;2.40;;
1593;SDS011;790;47.000;16.084;2023-02-27T00:57:10;2.63;;;2.43;;
1593;SDS011;790;47.000;16.084;2023-02-27T00:59:38;2.90;;;2.00;;
1593;SDS011;790;47.000;16.084;2023-02-27T01:02:05;2.57;;;2.37;;
1593;SDS011;790;47.000;16.084;2023-02-27T01:04:32;2.67;;;2.47;;
1593;SDS011;790;47.000;16.084;2023-02-27T01:07:01;2.50;;;2.30;;
1593;SDS011;790;47.000;16.084;2023-02-27T01:09:29;2.50;;;2.30;;
1593;SDS011;790;47.000;16.084;2023-02-27T01:11:57;2.80;;;2.40;;
1593;SDS011;790;47.000;16.084;2023-02-27T01:14:24;2.97;;;2.77;;
1593;SDS011;790;47.000;16.084;2023-02-27T01:16:52;2.40;;;2.23;;
1593;SDS011;790;47.000;16.084;2023-02-27T01:19:19;4.50;;;4.10;;
1593;SDS011;790;47.000;16.084;2023-02-27T01:21:46;2.50;;;2.37;;
1593;SDS011;790;47.000;16.084;2023-02-27T01:24:15;2.43;;;2.30;;
1593;SDS011;790;47.000;16.084;2023-02-27T01:26:43;2.30;;;2.10;;
1593;SDS011;790;47.000;16.084;2023-02-27T01:29:11;2.40;;;2.20;;
1593;SDS011;790;47.000;16.084;2023-02-27T01:31:39;2.90;;;2.40;;
1593;SDS011;790;47.000;16.084;2023-02-27T01:34:07;2.67;;;2.47;;
1593;SDS011;790;47.000;16.084;2023-02-27T01:36:34;3.23;;;2.43;;
1593;SDS011;790;47.000;16.084;2023-02-27T01:39:01;3.00;;;2.70;;
1593;SDS011;790;47.000;16.084;2023-02-27T01:41:30;2.80;;;2.47;;
1593;SDS011;790;47.000;16.084;2023-02-27T01:43:58;3.00;;;2.80;;
1593;SDS011;790;47.000;16.084;2023-02-27T01:46:26;2.53;;;2.33;;
1593;SDS011;790;47.000;16.084;2023-02-27T01:48:55;2.67;;;2.47;;
1593;SDS011;790;47.000;16.084;2023-02-27T01:51:26;2.43;;;2.23;;
1593;SDS011;790;47.000;16.084;2023-02-27T01:53:57;2.73;;;2.53;;
1593;SDS011;790;47.000;16.084;2023-02-27T01:56:26;2.23;;;2.10;;
1593;SDS011;790;47.000;16.084;2023-02-27T01:58:56;2.37;;;2.27;;
1593;SDS011;790;47.000;16.084;2023-02-27T02:01:27;2.43;;;2.23;;
1593;SDS011;790;47.000;16.084;2023-02-27T02:03:57;2.60;;;2.40;;
1593;SDS011;790;47.000;16.084;2023-02-27T02:06:28;2.30;;;2.20;;
1593;SDS011;790;47.000;16.084;2023-02-27T02:08:57;2.40;;;2.20;;
1593;SDS011;790;47.000;16.084;2023-02-27T02:11:26;2.30;;;2.10;;
1593;SDS011;790;47.000;16.084;2023-02-27T02:13:56;3.43;;;2.13;;
1593;SDS011;790;47.000;16.084;2023-02-27T02:16:28;4.43;;;2.40;;
1593;SDS011;790;47.000;16.084;2023-02-27T02:25:58;2.93;;;2.73;;
1593;SDS011;790;47.000;16.084;2023-02-27T02:32:01;2.30;;;2.10;;
1593;SDS011;790;47.000;16.084;2023-02-27T02:34:54;2.37;;;2.00;;
1593;SDS011;790;47.000;16.084;2023-02-27T02:40:45;2.37;;;2.17;;
1593;SDS011;790;47.000;16.084;2023-02-27T02:43:19;2.40;;;2.30;;
1593;SDS011;790;47.000;16.084;2023-02-27T02:45:55;2.53;;;2.17;;
1593;SDS011;790;47.000;16.084;2023-02-27T02:48:28;3.70;;;2.17;;
1593;SDS011;790;47.000;16.084;2023-02-27T02:51:00;2.53;;;2.33;;
1593;SDS011;790;47.000;16.084;2023-02-27T02:53:31;2.50;;;2.33;;
1593;SDS011;790;47.000;16.084;2023-02-27T02:56:09;3.07;;;2.00;;
1593;SDS011;790;47.000;16.084;2023-02-27T02:58:42;4.30;;;2.40;;
1593;SDS011;790;47.000;16.084;2023-02-27T03:01:13;2.10;;;1.97;;
1593;SDS011;790;47.000;16.084;2023-02-27T03:03:42;3.93;;;2.30;;
1593;SDS011;790;47.000;16.084;2023-02-27T03:06:16;2.30;;;2.20;;
1593;SDS011;790;47.000;16.084;2023-02-27T03:08:48;4.23;;;2.73;;
1593;SDS011;790;47.000;16.084;2023-02-27T03:11:21;3.60;;;2.20;;
1593;SDS011;790;47.000;16.084;2023-02-27T03:13:51;2.20;;;2.10;;
1593;SDS011;790;47.000;16.084;2023-02-27T03:16:21;2.90;;;2.40;;
1593;SDS011;790;47.000;16.084;2023-02-27T03:18:52;2.27;;;2.17;;
1593;SDS011;790;47.000;16.084;2023-02-27T03:21:25;2.50;;;2.30;;
1593;SDS011;790;47.000;16.084;2023-02-27T03:23:58;2.73;;;2.53;;
1593;SDS011;790;47.000;16.084;2023-02-27T03:26:32;3.03;;;2.40;;
1593;SDS011;790;47.000;16.084;2023-02-27T03:29:03;3.57;;;3.27;;
1593;SDS011;790;47.000;16.084;2023-02-27T03:31:33;2.80;;;2.60;;
1593;SDS011;790;47.000;16.084;2023-02-27T03:34:07;3.23;;;2.93;;
1593;SDS011;790;47.000;16.084;2023-02-27T03:36:42;2.80;;;2.50;;
1593;SDS011;790;47.000;16.084;2023-02-27T03:39:16;3.03;;;2.43;;
1593;SDS011;790;47.000;16.084;2023-02-27T03:41:55;6.27;;;3.30;;
1593;SDS011;790;47.000;16.084;2023-02-27T03:44:33;3.30;;;2.93;;
1593;SDS011;790;47.000;16.084;2023-02-27T03:47:06;2.80;;;2.57;;
1593;SDS011;790;47.000;16.084;2023-02-27T03:49:33;4.87;;;2.90;;
1593;SDS011;790;47.000;16.084;2023-02-27T03:52:00;5.13;;;3.27;;
1593;SDS011;790;47.000;16.084;2023-02-27T03:54:29;2.60;;;2.40;;
1593;SDS011;790;47.000;16.084;2023-02-27T03:57:02;2.90;;;2.70;;
1593;SDS011;790;47.000;16.084;2023-02-27T03:59:30;3.90;;;2.63;;
1593;SDS011;790;47.000;16.084;2023-02-27T04:01:59;3.13;;;2.83;;
1593;SDS011;790;47.000;16.084;2023-02-27T04:04:28;3.37;;;2.83;;
1593;SDS011;790;47.000;16.084;2023-02-27T04:06:58;2.70;;;2.50;;
1593;SDS011;790;47.000;16.084;2023-02-27T04:10:02;2.77;;;2.57;;
1593;SDS011;790;47.000;16.084;2023-02-27T04:18:50;2.87;;;2.67;;
1593;SDS011;790;47.000;16.084;2023-02-27T04:21:29;2.83;;;2.63;;
1593;SDS011;790;47.000;16.084;2023-02-27T04:24:03;4.03;;;3.00;;
1593;SDS011;790;47.000;16.084;2023-02-27T04:26:41;5.00;;;2.60;;
1593;SDS011;790;47.000;16.084;2023-02-27T04:29:13;3.00;;;2.60;;
1593;SDS011;790;47.000;16.084;2023-02-27T04:31:45;3.03;;;2.73;;
1593;SDS011;790;47.000;16.084;2023-02-27T04:34:20;3.53;;;3.23;;
1593;SDS011;790;47.000;16.084;2023-02-27T04:36:52;3.13;;;2.70;;
1593;SDS011;790;47.000;16.084;2023-02-27T04:39:23;4.20;;;3.40;;
1593;SDS011;790;47.000;16.084;2023-02-27T04:41:55;4.60;;;3.00;;
1593;SDS011;790;47.000;16.084;2023-02-27T04:44:26;4.20;;;2.97;;
1593;SDS011;790;47.000;16.084;2023-02-27T04:47:00;3.50;;;3.13;;
1593;SDS011;790;47.000;16.084;2023-02-27T04:49:31;4.37;;;3.17;;
1593;SDS011;790;47.000;16.084;2023-02-27T04:52:03;5.03;;;3.13;;
1593;SDS011;790;47.000;16.084;2023-02-27T04:54:33;3.10;;;2.90;;
1593;SDS011;790;47.000;16.084;2023-02-27T04:57:07;3.10;;;2.90;;
1593;SDS011;790;47.000;16.084;2023-02-27T04:59:38;3.20;;;3.00;;
1593;SDS011;790;47.000;16.084;2023-02-27T05:02:10;5.00;;;4.00;;
1593;SDS011;790;47.000;16.084;2023-02-27T05:04:41;5.40;;;4.87;;
1593;SDS011;790;47.000;16.084;2023-02-27T05:07:12;5.77;;;4.80;;
1593;SDS011;790;47.000;16.084;2023-02-27T05:09:44;5.00;;;4.20;;
1593;SDS011;790;47.000;16.084;2023-02-27T05:12:19;6.13;;;3.73;;
1593;SDS011;790;47.000;16.084;2023-02-27T05:14:50;5.03;;;4.43;;
1593;SDS011;790;47.000;16.084;2023-02-27T05:17:24;4.40;;;4.10;;
1593;SDS011;790;47.000;16.084;2023-02-27T05:19:54;9.23;;;6.33;;
1593;SDS011;790;47.000;16.084;2023-02-27T05:22:23;6.00;;;4.80;;
1593;SDS011;790;47.000;16.084;2023-02-27T05:24:58;4.87;;;4.37;;
1593;SDS011;790;47.000;16.084;2023-02-27T05:27:33;4.90;;;4.50;;
1593;SDS011;790;47.000;16.084;2023-02-27T05:30:08;5.03;;;4.40;;
1593;SDS011;790;47.000;16.084;2023-02-27T05:32:45;4.20;;;3.80;;
1593;SDS011;790;47.000;16.084;2023-02-27T05:35:18;6.20;;;4.00;;
1593;SDS011;790;47.000;16.084;2023-02-27T05:37:50;4.70;;;3.13;;
1593;SDS011;790;47.000;16.084;2023-02-27T05:40:26;3.77;;;3.43;;
1593;SDS011;790;47.000;16.084;2023-02-27T05:42:59;6.27;;;3.83;;
1593;SDS011;790;47.000;16.084;2023-02-27T05:45:29;5.30;;;3.50;;
1593;SDS011;790;47.000;16.084;2023-02-27T05:48:04;4.67;;;3.93;;
1593;SDS011;790;47.000;16.084;2023-02-27T05:50:36;3.97;;;3.60;;
1593;SDS011;790;47.000;16.084;2023-02-27T05:53:04;4.33;;;3.57;;
1593;SDS011;790;47.000;16.084;2023-02-27T05:55:36;3.50;;;3.07;;
1593;SDS011;790;47.000;16.084;2023-02-27T05:58:06;4.23;;;3.40;;
1593;SDS011;790;47.000;16.084;2023-02-27T06:00:38;5.27;;;3.80;;
1593;SDS011;790;47.000;16.084;2023-02-27T06:03:11;4.27;;;3.63;;
1593;SDS011;790;47.000;16.084;2023-02-27T06:05:40;4.57;;;3.70;;
1593;SDS011;790;47.000;16.084;2023-02-27T06:08:08;5.47;;;3.80;;
1593;SDS011;790;47.000;16.084;2023-02-27T06:10:36;6.10;;;4.13;;
1593;SDS011;790;47.000;16.084;2023-02-27T06:13:03;3.93;;;3.53;;
1593;SDS011;790;47.000;16.084;2023-02-27T06:15:30;5.10;;;3.73;;
1593;SDS011;790;47.000;16.084;2023-02-27T06:17:59;3.70;;;3.47;;
1593;SDS011;790;47.000;16.084;2023-02-27T06:20:28;3.80;;;3.43;;
1593;SDS011;790;47.000;16.084;2023-02-27T06:22:55;4.37;;;4.00;;
1593;SDS011;790;47.000;16.084;2023-02-27T06:25:23;3.87;;;3.57;;
1593;SDS011;790;47.000;16.084;2023-02-27T06:27:51;4.60;;;4.13;;
1593;SDS011;790;47.000;16.084;2023-02-27T06:30:19;4.10;;;3.70;;
1593;SDS011;790;47.000;16.084;2023-02-27T06:32:47;5.73;;;3.93;;
1593;SDS011;790;47.000;16.084;2023-02-27T06:35:14;8.23;;;3.87;;
1593;SDS011;790;47.000;16.084;2023-02-27T06:40:29;6.50;;;3.83;;
1593;SDS011;790;47.000;16.084;2023-02-27T06:43:12;5.03;;;4.50;;
1593;SDS011;790;47.000;16.084;2023-02-27T06:45:54;4.53;;;3.80;;
1593;SDS011;790;47.000;16.084;2023-02-27T06:48:23;4.03;;;3.60;;
1593;SDS011;790;47.000;16.084;2023-02-27T06:51:18;4.33;;;3.90;;
1593;SDS011;790;47.000;16.084;2023-02-27T06:53:54;5.20;;;3.47;;
1593;SDS011;790;47.000;16.084;2023-02-27T06:56:21;8.43;;;4.80;;
1593;SDS011;790;47.000;16.084;2023-02-27T06:58:56;5.90;;;4.13;;
1593;SDS011;790;47.000;16.084;2023-02-27T07:01:24;9.37;;;5.93;;
1593;SDS011;790;47.000;16.084;2023-02-27T07:03:51;8.80;;;5.03;;
1593;SDS011;790;47.000;16.084;2023-02-27T07:06:18;7.23;;;4.17;;
1593;SDS011;790;47.000;16.084;2023-02-27T07:08:46;7.77;;;4.13;;
1593;SDS011;790;47.000;16.084;2023-02-27T07:11:14;3.80;;;3.50;;
1593;SDS011;790;47.000;16.084;2023-02-27T07:13:41;5.90;;;3.90;;
1593;SDS011;790;47.000;16.084;2023-02-27T07:16:09;4.40;;;4.00;;
1593;SDS011;790;47.000;16.084;2023-02-27T07:18:37;5.97;;;4.47;;
1593;SDS011;790;47.000;16.084;2023-02-27T07:21:04;4.20;;;3.80;;
1593;SDS011;790;47.000;16.084;2023-02-27T07:23:32;6.07;;;3.80;;
1593;SDS011;790;47.000;16.084;2023-02-27T07:26:01;5.43;;;4.47;;
1593;SDS011;790;47.000;16.084;2023-02-27T07:28:31;8.13;;;4.17;;
1593;SDS011;790;47.000;16.084;2023-02-27T07:30:58;4.80;;;3.70;;
1593;SDS011;790;47.000;16.084;2023-02-27T07:33:26;5.67;;;4.27;;
1593;SDS011;790;47.000;16.084;2023-02-27T07:35:53;4.70;;;3.80;;
1593;SDS011;790;47.000;16.084;2023-02-27T07:38:21;5.90;;;3.73;;
1593;SDS011;790;47.000;16.084;2023-02-27T07:40:48;4.63;;;3.53;;
1593;SDS011;790;47.000;16.084;2023-02-27T07:43:17;5.63;;;3.60;;
1593;SDS011;790;47.000;16.084;2023-02-27T07:45:45;6.17;;;3.80;;
1593;SDS011;790;47.000;16.084;2023-02-27T07:48:15;3.10;;;2.80;;
1593;SDS011;790;47.000;16.084;2023-02-27T07:50:42;6.63;;;3.20;;
1593;SDS011;790;47.000;16.084;2023-02-27T07:53:09;3.40;;;3.00;;
1593;SDS011;790;47.000;16.084;2023-02-27T07:55:38;4.50;;;2.93;;
1593;SDS011;790;47.000;16.084;2023-02-27T07:58:05;2.73;;;2.47;;
1593;SDS011;790;47.000;16.084;2023-02-27T08:00:33;3.63;;;2.30;;
1593;SDS011;790;47.000;16.084;2023-02-27T08:03:03;1.90;;;1.80;;
1593;SDS011;790;47.000;16.084;2023-02-27T08:05:31;3.63;;;2.73;;
1593;SDS011;790;47.000;16.084;2023-02-27T08:07:58;3.47;;;2.53;;
1593;SDS011;790;47.000;16.084;2023-02-27T08:10:26;2.73;;;2.20;;
1593;SDS011;790;47.000;16.084;2023-02-27T08:12:53;2.20;;;1.93;;
1593;SDS011;790;47.000;16.084;2023-02-27T08:15:20;4.43;;;3.00;;
1593;SDS011;790;47.000;16.084;2023-02-27T08:17:48;3.77;;;1.87;;
1593;SDS011;790;47.000;16.084;2023-02-27T08:20:17;2.83;;;2.00;;
1593;SDS011;790;47.000;16.084;2023-02-27T08:22:46;2.40;;;1.67;;
1593;SDS011;790;47.000;16.084;2023-02-27T08:25:14;2.50;;;1.83;;
1593;SDS011;790;47.000;16.084;2023-02-27T08:27:42;3.37;;;1.70;;
1593;SDS011;790;47.000;16.084;2023-02-27T08:30:10;1.90;;;1.77;;
1593;SDS011;790;47.000;16.084;2023-02-27T08:32:38;2.80;;;1.70;;
1593;SDS011;790;47.000;16.084;2023-02-27T08:35:06;2.40;;;1.90;;
1593;SDS011;790;47.000;16.084;2023-02-27T08:37:36;3.60;;;2.10;;
1593;SDS011;790;47.000;16.084;2023-02-27T08:40:04;3.93;;;1.87;;
1593;SDS011;790;47.000;16.084;2023-02-27T08:42:33;3.33;;;2.37;;
1593;SDS011;790;47.000;16.084;2023-02-27T08:45:00;3.13;;;2.10;;
1593;SDS011;790;47.000;16.084;2023-02-27T08:47:28;3.17;;;1.93;;
1593;SDS011;790;47.000;16.084;2023-02-27T08:49:56;2.23;;;2.00;;
1593;SDS011;790;47.000;16.084;2023-02-27T08:52:23;3.60;;;2.10;;
1593;SDS011;790;47.000;16.084;2023-02-27T08:54:51;1.90;;;1.43;;
1593;SDS011;790;47.000;16.084;2023-02-27T08:57:19;4.07;;;1.93;;
1593;SDS011;790;47.000;16.084;2023-02-27T08:59:46;2.00;;;1.83;;
1593;SDS011;790;47.000;16.084;2023-02-27T09:02:13;2.53;;;2.03;;
1593;SDS011;790;47.000;16.084;2023-02-27T09:04:40;2.90;;;2.20;;
1593;SDS011;790;47.000;16.084;2023-02-27T09:07:08;3.13;;;2.40;;
1593;SDS011;790;47.000;16.084;2023-02-27T09:09:35;3.07;;;2.53;;
1593;SDS011;790;47.000;16.084;2023-02-27T09:12:05;5.77;;;2.40;;
1593;SDS011;790;47.000;16.084;2023-02-27T09:14:32;3.60;;;2.20;;
1593;SDS011;790;47.000;16.084;2023-02-27T09:16:59;5.47;;;4.03;;
1593;SDS011;790;47.000;16.084;2023-02-27T09:19:27;5.20;;;2.00;;
1593;SDS011;790;47.000;16.084;2023-02-27T09:21:54;2.70;;;2.37;;
1593;SDS011;790;47.000;16.084;2023-02-27T09:24:22;5.83;;;1.80;;
1593;SDS011;790;47.000;16.084;2023-02-27T09:26:49;4.83;;;2.60;;
1593;SDS011;790;47.000;16.084;2023-02-27T09:29:18;5.00;;;2.10;;
1593;SDS011;790;47.000;16.084;2023-02-27T09:31:46;2.23;;;1.73;;
1593;SDS011;790;47.000;16.084;2023-02-27T09:34:14;2.53;;;2.27;;
1593;SDS011;790;47.000;16.084;2023-02-27T09:36:41;6.93;;;2.53;;
1593;SDS011;790;47.000;16.084;2023-02-27T09:39:08;3.00;;;2.03;;
1593;SDS011;790;47.000;16.084;2023-02-27T09:41:41;2.93;;;2.03;;
1593;SDS011;790;47.000;16.084;2023-02-27T09:44:20;4.23;;;2.10;;
1593;SDS011;790;47.000;16.084;2023-02-27T09:46:51;2.93;;;2.10;;
1593;SDS011;790;47.000;16.084;2023-02-27T09:49:20;2.33;;;2.13;;
1593;SDS011;790;47.000;16.084;2023-02-27T09:51:54;2.10;;;1.97;;
1593;SDS011;790;47.000;16.084;2023-02-27T09:54:21;2.33;;;2.13;;
1593;SDS011;790;47.000;16.084;2023-02-27T09:56:51;4.47;;;2.33;;
1593;SDS011;790;47.000;16.084;2023-02-27T09:59:28;2.73;;;1.77;;
1593;SDS011;790;47.000;16.084;2023-02-27T10:02:01;2.93;;;2.17;;
1593;SDS011;790;47.000;16.084;2023-02-27T10:04:39;2.67;;;2.47;;
1593;SDS011;790;47.000;16.084;2023-02-27T10:07:14;2.67;;;2.27;;
1593;SDS011;790;47.000;16.084;2023-02-27T10:09:50;2.47;;;2.20;;
1593;SDS011;790;47.000;16.084;2023-02-27T10:12:33;2.33;;;1.80;;
1593;SDS011;790;47.000;16.084;2023-02-27T10:15:13;1.73;;;1.60;;
1593;SDS011;790;47.000;16.084;2023-02-27T10:17:47;2.77;;;1.90;;
1593;SDS011;790;47.000;16.084;2023-02-27T10:20:21;4.07;;;1.73;;
1593;SDS011;790;47.000;16.084;2023-02-27T10:22:52;3.53;;;2.90;;
1593;SDS011;790;47.000;16.084;2023-02-27T10:25:22;4.53;;;2.53;;
1593;SDS011;790;47.000;16.084;2023-02-27T10:27:49;1.80;;;1.67;;
1593;SDS011;790;47.000;16.084;2023-02-27T10:30:26;2.17;;;1.97;;
1593;SDS011;790;47.000;16.084;2023-02-27T10:32:55;2.23;;;1.77;;
1593;SDS011;790;47.000;16.084;2023-02-27T10:35:33;7.10;;;5.23;;
1593;SDS011;790;47.000;16.084;2023-02-27T10:38:04;2.60;;;2.37;;
1593;SDS011;790;47.000;16.084;2023-02-27T10:40:37;3.40;;;2.17;;
1593;SDS011;790;47.000;16.084;2023-02-27T10:43:09;2.07;;;1.90;;
1593;SDS011;790;47.000;16.084;2023-02-27T10:45:43;2.03;;;1.83;;
1593;SDS011;790;47.000;16.084;2023-02-27T10:48:11;3.23;;;2.17;;
1593;SDS011;790;47.000;16.084;2023-02-27T10:50:40;2.37;;;2.10;;
1593;SDS011;790;47.000;16.084;2023-02-27T10:53:16;2.50;;;2.13;;
1593;SDS011;790;47.000;16.084;2023-02-27T10:55:47;2.43;;;2.23;;
1593;SDS011;790;47.000;16.084;2023-02-27T10:58:24;2.43;;;2.23;;
1593;SDS011;790;47.000;16.084;2023-02-27T11:00:58;6.20;;;3.80;;
1593;SDS011;790;47.000;16.084;2023-02-27T11:03:28;2.80;;;2.50;;
1593;SDS011;790;47.000;16.084;2023-02-27T11:05:59;7.30;;;2.60;;
1593;SDS011;790;47.000;16.084;2023-02-27T11:08:31;2.90;;;2.40;;
1593;SDS011;790;47.000;16.084;2023-02-27T11:11:00;2.60;;;2.10;;
1593;SDS011;790;47.000;16.084;2023-02-27T11:13:29;4.63;;;2.47;;
1593;SDS011;790;47.000;16.084;2023-02-27T11:16:04;3.00;;;2.80;;
1593;SDS011;790;47.000;16.084;2023-02-27T11:18:34;2.40;;;2.20;;
1593;SDS011;790;47.000;16.084;2023-02-27T11:21:16;3.20;;;2.90;;
1593;SDS011;790;47.000;16.084;2023-02-27T11:24:08;2.40;;;2.23;;
1593;SDS011;790;47.000;16.084;2023-02-27T11:26:52;3.03;;;2.33;;
1593;SDS011;790;47.000;16.084;2023-02-27T11:29:21;3.03;;;2.40;;
1593;SDS011;790;47.000;16.084;2023-02-27T11:32:03;3.80;;;2.20;;
1593;SDS011;790;47.000;16.084;2023-02-27T11:34:37;11.83;;;6.20;;
1593;SDS011;790;47.000;16.084;2023-02-27T11:37:06;4.20;;;2.27;;
1593;SDS011;790;47.000;16.084;2023-02-27T11:39:57;5.27;;;2.67;;
1593;SDS011;790;47.000;16.084;2023-02-27T11:42:29;4.23;;;2.90;;
1593;SDS011;790;47.000;16.084;2023-02-27T11:44:59;3.23;;;2.70;;
1593;SDS011;790;47.000;16.084;2023-02-27T11:47:30;2.90;;;2.70;;
1593;SDS011;790;47.000;16.084;2023-02-27T11:50:07;3.87;;;3.10;;
1593;SDS011;790;47.000;16.084;2023-02-27T11:52:52;3.43;;;3.00;;
1593;SDS011;790;47.000;16.084;2023-02-27T11:55:25;2.80;;;2.60;;
1593;SDS011;790;47.000;16.084;2023-02-27T11:57:54;3.20;;;2.80;;
1593;SDS011;790;47.000;16.084;2023-02-27T12:00:28;2.53;;;2.30;;
1593;SDS011;790;47.000;16.084;2023-02-27T12:03:02;2.57;;;2.33;;
1593;SDS011;790;47.000;16.084;2023-02-27T12:05:33;2.70;;;2.50;;
1593;SDS011;790;47.000;16.084;2023-02-27T12:08:05;2.50;;;2.30;;
1593;SDS011;790;47.000;16.084;2023-02-27T12:10:42;2.73;;;2.50;;
1593;SDS011;790;47.000;16.084;2023-02-27T12:13:14;3.90;;;2.70;;
1593;SDS011;790;47.000;16.084;2023-02-27T12:15:46;2.53;;;2.27;;
1593;SDS011;790;47.000;16.084;2023-02-27T12:18:22;3.40;;;2.90;;
1593;SDS011;790;47.000;16.084;2023-02-27T12:20:54;2.57;;;2.37;;
1593;SDS011;790;47.000;16.084;2023-02-27T12:23:26;3.77;;;2.80;;
1593;SDS011;790;47.000;16.084;2023-02-27T12:26:00;3.13;;;2.80;;
1593;SDS011;790;47.000;16.084;2023-02-27T12:28:36;2.60;;;2.40;;
1593;SDS011;790;47.000;16.084;2023-02-27T12:34:18;2.50;;;2.23;;
1593;SDS011;790;47.000;16.084;2023-02-27T12:36:51;7.63;;;2.77;;
1593;SDS011;790;47.000;16.084;2023-02-27T12:39:21;3.53;;;2.40;;
1593;SDS011;790;47.000;16.084;2023-02-27T12:41:56;6.23;;;2.67;;
1593;SDS011;790;47.000;16.084;2023-02-27T12:44:39;3.20;;;2.30;;
1593;SDS011;790;47.000;16.084;2023-02-27T12:47:27;6.93;;;2.93;;
1593;SDS011;790;47.000;16.084;2023-02-27T12:50:04;2.70;;;2.47;;
1593;SDS011;790;47.000;16.084;2023-02-27T12:52:41;3.93;;;2.30;;
1593;SDS011;790;47.000;16.084;2023-02-27T12:55:19;2.67;;;2.10;;
1593;SDS011;790;47.000;16.084;2023-02-27T12:58:05;1.93;;;1.67;;
1593;SDS011;790;47.000;16.084;2023-02-27T13:00:44;3.33;;;2.20;;
1593;SDS011;790;47.000;16.084;2023-02-27T13:03:15;2.13;;;1.90;;
1593;SDS011;790;47.000;16.084;2023-02-27T13:05:52;3.00;;;2.20;;
1593;SDS011;790;47.000;16.084;2023-02-27T13:11:23;2.43;;;2.20;;
1593;SDS011;790;47.000;16.084;2023-02-27T13:13:59;3.50;;;2.30;;
1593;SDS011;790;47.000;16.084;2023-02-27T13:16:32;2.40;;;2.30;;
1593;SDS011;790;47.000;16.084;2023-02-27T13:19:03;3.80;;;2.37;;
1593;SDS011;790;47.000;16.084;2023-02-27T13:21:45;2.50;;;2.27;;
1593;SDS011;790;47.000;16.084;2023-02-27T13:24:22;3.40;;;2.60;;
1593;SDS011;790;47.000;16.084;2023-02-27T13:29:47;3.30;;;2.20;;
1593;SDS011;790;47.000;16.084;2023-02-27T13:35:38;2.30;;;2.20;;
1593;SDS011;790;47.000;16.084;2023-02-27T13:38:41;2.33;;;2.17;;
1593;SDS011;790;47.000;16.084;2023-02-27T13:53:19;2.93;;;2.43;;
1593;SDS011;790;47.000;16.084;2023-02-27T13:59:08;2.80;;;2.60;;
1593;SDS011;790;47.000;16.084;2023-02-27T14:01:40;2.83;;;2.30;;
1593;SDS011;790;47.000;16.084;2023-02-27T14:04:26;2.30;;;2.10;;
1593;SDS011;790;47.000;16.084;2023-02-27T14:07:01;3.07;;;2.40;;
1593;SDS011;790;47.000;16.084;2023-02-27T14:09:43;3.13;;;2.37;;
1593;SDS011;790;47.000;16.084;2023-02-27T14:12:30;2.53;;;2.10;;
1593;SDS011;790;47.000;16.084;2023-02-27T14:15:03;3.17;;;2.87;;
1593;SDS011;790;47.000;16.084;2023-02-27T14:17:40;2.60;;;2.10;;
1593;SDS011;790;47.000;16.084;2023-02-27T14:23:28;2.70;;;2.47;;
1593;SDS011;790;47.000;16.084;2023-02-27T14:25:57;4.33;;;2.60;;
1593;SDS011;790;47.000;16.084;2023-02-27T14:28:30;2.30;;;2.10;;
1593;SDS011;790;47.000;16.084;2023-02-27T14:34:01;3.97;;;3.60;;
1593;SDS011;790;47.000;16.084;2023-02-27T14:36:31;2.47;;;2.20;;
1593;SDS011;790;47.000;16.084;2023-02-27T14:39:18;2.80;;;2.60;;
1593;SDS011;790;47.000;16.084;2023-02-27T14:41:49;2.43;;;2.23;;
1593;SDS011;790;47.000;16.084;2023-02-27T14:44:38;2.40;;;2.30;;
1593;SDS011;790;47.000;16.084;2023-02-27T14:47:19;2.57;;;2.37;;
1593;SDS011;790;47.000;16.084;2023-02-27T14:50:00;4.47;;;2.83;;
1593;SDS011;790;47.000;16.084;2023-02-27T14:52:29;2.67;;;2.47;;
1593;SDS011;790;47.000;16.084;2023-02-27T14:55:05;3.60;;;2.67;;
1593;SDS011;790;47.000;16.084;2023-02-27T14:57:38;2.47;;;2.27;;
1593;SDS011;790;47.000;16.084;2023-02-27T15:03:50;4.07;;;2.73;;
1593;SDS011;790;47.000;16.084;2023-02-27T15:06:23;3.37;;;2.27;;
1593;SDS011;790;47.000;16.084;2023-02-27T15:09:03;2.67;;;2.47;;
1593;SDS011;790;47.000;16.084;2023-02-27T15:11:39;3.17;;;2.63;;
1593;SDS011;790;47.000;16.084;2023-02-27T15:14:17;2.90;;;2.53;;
1593;SDS011;790;47.000;16.084;2023-02-27T15:16:54;5.20;;;2.63;;
1593;SDS011;790;47.000;16.084;2023-02-27T15:19:43;2.53;;;2.30;;
1593;SDS011;790;47.000;16.084;2023-02-27T15:22:23;3.37;;;2.50;;
1593;SDS011;790;47.000;16.084;2023-02-27T15:25:31;3.47;;;2.83;;
1593;SDS011;790;47.000;16.084;2023-02-27T15:28:16;3.47;;;2.90;;
1593;SDS011;790;47.000;16.084;2023-02-27T15:30:48;3.83;;;3.10;;
1593;SDS011;790;47.000;16.084;2023-02-27T15:33:17;2.77;;;2.57;;
1593;SDS011;790;47.000;16.084;2023-02-27T15:36:01;2.80;;;2.60;;
1593;SDS011;790;47.000;16.084;2023-02-27T15:38:41;3.03;;;2.73;;
1593;SDS011;790;47.000;16.084;2023-02-27T15:41:25;2.77;;;2.57;;
1593;SDS011;790;47.000;16.084;2023-02-27T15:44:16;2.80;;;2.53;;
1593;SDS011;790;47.000;16.084;2023-02-27T15:47:00;4.23;;;2.93;;
1593;SDS011;790;47.000;16.084;2023-02-27T15:49:30;3.30;;;2.80;;
1593;SDS011;790;47.000;16.084;2023-02-27T15:52:01;2.60;;;2.40;;
1593;SDS011;790;47.000;16.084;2023-02-27T15:54:41;3.63;;;2.40;;
1593;SDS011;790;47.000;16.084;2023-02-27T15:57:13;2.70;;;2.50;;
1593;SDS011;790;47.000;16.084;2023-02-27T15:59:42;2.90;;;2.60;;
1593;SDS011;790;47.000;16.084;2023-02-27T16:02:12;2.53;;;2.30;;
1593;SDS011;790;47.000;16.084;2023-02-27T16:04:45;3.10;;;2.67;;
1593;SDS011;790;47.000;16.084;2023-02-27T16:07:28;2.67;;;2.40;;
1593;SDS011;790;47.000;16.084;2023-02-27T16:10:16;3.30;;;2.20;;
1593;SDS011;790;47.000;16.084;2023-02-27T16:12:49;4.07;;;2.90;;
1593;SDS011;790;47.000;16.084;2023-02-27T16:15:28;2.63;;;2.47;;
1593;SDS011;790;47.000;16.084;2023-02-27T16:18:24;2.80;;;2.60;;
1593;SDS011;790;47.000;16.084;2023-02-27T16:24:01;2.30;;;2.10;;
1593;SDS011;790;47.000;16.084;2023-02-27T16:26:49;2.73;;;2.53;;
1593;SDS011;790;47.000;16.084;2023-02-27T16:29:21;3.30;;;3.00;;
1593;SDS011;790;47.000;16.084;2023-02-27T16:32:13;2.80;;;2.60;;
1593;SDS011;790;47.000;16.084;2023-02-27T16:34:50;3.13;;;2.83;;
1593;SDS011;790;47.000;16.084;2023-02-27T16:37:53;3.00;;;2.70;;
1593;SDS011;790;47.000;16.084;2023-02-27T16:40:40;4.93;;;2.97;;
1593;SDS011;790;47.000;16.084;2023-02-27T16:43:39;3.07;;;2.70;;
1593;SDS011;790;47.000;16.084;2023-02-27T16:46:10;2.90;;;2.67;;
1593;SDS011;790;47.000;16.084;2023-02-27T16:48:59;4.97;;;3.07;;
1593;SDS011;790;47.000;16.084;2023-02-27T16:51:28;2.87;;;2.60;;